Station Historical Data
Daily Summary for April 2, 2017 Units:  Metric    English   Both
« Previous Day
Next Day »
Daily Weekly Monthly Yearly Custom
  High: Low: Average:
Temperature: 8.8 °C 0.3 °C 4.8 °C
Dew Point: 4.5 °C -1.2 °C 1.7 °C
Humidity: 92% 69% 81%
Wind Speed: 19.3km/h 0km/h 8.2km/h
Wind Gust: 33.8km/h - -
Wind- - SW
Pressure: 1023.2 hPa 1019.2 hPa -
Precipitation: 0 mm    
Historical Graphs
 
 
Tabular Data for April 2, 2017
Time Temperature Dew Point Pressure Wind Wind Speed Wind Gust Humidity Rainfall Rate (Hourly)
00:00 1.4 °C -0.2 °C 1021.6 hPa SW 1.6 km/h 3.2 km/h 89% 0 mm
00:05 1.3 °C -0.3 °C 1021.6 hPa SW 1.6 km/h 3.2 km/h 89% 0 mm
00:10 1.1 °C -0.6 °C 1021.2 hPa SW 1.6 km/h 3.2 km/h 89% 0 mm
00:15 0.8 °C -0.6 °C 1021.2 hPa SW 1.6 km/h 3.2 km/h 90% 0 mm
00:19 0.7 °C -0.7 °C 1021.2 hPa Calm   3.2 km/h 90% 0 mm
00:25 0.6 °C -0.9 °C 1021.2 hPa Calm     90% 0 mm
00:30 0.5 °C -0.9 °C 1021.6 hPa Calm     90% 0 mm
00:35 0.4 °C -1.1 °C 1021.6 hPa Calm     90% 0 mm
00:40 0.4 °C -1.1 °C 1021.6 hPa Calm     90% 0 mm
00:45 0.3 °C -1.2 °C 1021.6 hPa SW 1.6 km/h 3.2 km/h 90% 0 mm
00:49 0.4 °C -0.9 °C 1021.6 hPa SW 1.6 km/h 3.2 km/h 91% 0 mm
00:54 0.6 °C -0.7 °C 1021.6 hPa SSW 1.6 km/h 4.8 km/h 91% 0 mm
01:00 0.7 °C -0.6 °C 1021.6 hPa SSW 3.2 km/h 9.7 km/h 91% 0 mm
01:05 0.8 °C -0.4 °C 1021.6 hPa SSW 3.2 km/h 6.4 km/h 91% 0 mm
01:10 0.9 °C -0.3 °C 1021.9 hPa SSW 3.2 km/h 6.4 km/h 91% 0 mm
01:15 0.9 °C -0.3 °C 1021.6 hPa SSW 3.2 km/h 4.8 km/h 91% 0 mm
01:20 1.1 °C -0.2 °C 1021.6 hPa South 6.4 km/h 8 km/h 91% 0 mm
01:25 1.1 °C -0.1 °C 1021.6 hPa SSW 3.2 km/h 8 km/h 92% 0 mm
01:29 1.2 °C -0.1 °C 1021.6 hPa SSW 3.2 km/h 8 km/h 91% 0 mm
01:34 1.3 °C -0.1 °C 1021.6 hPa SW 1.6 km/h 8 km/h 91% 0 mm
01:39 1.3 °C 0 °C 1021.6 hPa SSW 1.6 km/h 6.4 km/h 91% 0 mm
01:44 1.4 °C 0.1 °C 1021.6 hPa SSW 1.6 km/h 9.7 km/h 91% 0 mm
01:49 1.4 °C 0.1 °C 1021.6 hPa SSW 3.2 km/h 8 km/h 91% 0 mm
01:55 1.4 °C 0.1 °C 1021.6 hPa SW 3.2 km/h 8 km/h 91% 0 mm
01:59 1.4 °C 0.1 °C 1021.6 hPa SW 3.2 km/h 8 km/h 91% 0 mm
02:05 1.4 °C 0.1 °C 1021.6 hPa SSW 3.2 km/h 8 km/h 91% 0 mm
02:10 1.3 °C -0.1 °C 1021.6 hPa SSW 3.2 km/h 6.4 km/h 91% 0 mm
02:15 1.3 °C -0.1 °C 1021.6 hPa SW 3.2 km/h 8 km/h 91% 0 mm
02:20 1.3 °C 0 °C 1021.6 hPa SW 6.4 km/h 11.3 km/h 91% 0 mm
02:25 1.4 °C 0.1 °C 1021.6 hPa SW 4.8 km/h 6.4 km/h 91% 0 mm
02:29 1.4 °C 0.1 °C 1021.6 hPa SW 3.2 km/h 8 km/h 91% 0 mm
02:35 1.4 °C 0.1 °C 1021.9 hPa SW 4.8 km/h 11.3 km/h 91% 0 mm
02:39 1.4 °C 0.1 °C 1021.9 hPa WSW 6.4 km/h 9.7 km/h 91% 0 mm
02:44 1.5 °C 0.3 °C 1021.6 hPa SW 1.6 km/h 11.3 km/h 92% 0 mm
02:50 1.6 °C 0.2 °C 1021.6 hPa SW 4.8 km/h 11.3 km/h 91% 0 mm
02:54 1.6 °C 0.2 °C 1021.6 hPa SW 4.8 km/h 12.9 km/h 91% 0 mm
02:59 1.6 °C 0.2 °C 1021.6 hPa SW 6.4 km/h 12.9 km/h 91% 0 mm
03:05 1.6 °C 0.2 °C 1021.6 hPa SW 4.8 km/h 11.3 km/h 91% 0 mm
03:09 1.6 °C 0.2 °C 1021.6 hPa SW 8 km/h 9.7 km/h 91% 0 mm
03:15 1.6 °C 0.2 °C 1021.6 hPa SW 6.4 km/h 11.3 km/h 91% 0 mm
03:20 1.5 °C 0.2 °C 1021.6 hPa SSW 6.4 km/h 9.7 km/h 91% 0 mm
03:25 1.6 °C 0.2 °C 1021.6 hPa SSW 4.8 km/h 12.9 km/h 91% 0 mm
03:30 1.6 °C 0.2 °C 1021.6 hPa SSW 6.4 km/h 12.9 km/h 91% 0 mm
03:34 1.6 °C 0.2 °C 1021.6 hPa SW 6.4 km/h 12.9 km/h 91% 0 mm
03:39 1.6 °C 0.2 °C 1021.6 hPa SW 6.4 km/h 11.3 km/h 91% 0 mm
03:45 1.6 °C 0.2 °C 1021.6 hPa SW 6.4 km/h 11.3 km/h 91% 0 mm
03:50 1.6 °C 0.3 °C 1021.6 hPa SW 6.4 km/h 14.5 km/h 91% 0 mm
03:54 1.7 °C 0.2 °C 1021.9 hPa SW 6.4 km/h 14.5 km/h 90% 0 mm
03:59 1.7 °C 0.3 °C 1021.9 hPa SW 9.7 km/h 16.1 km/h 90% 0 mm
04:04 1.7 °C 0.3 °C 1021.9 hPa SW 6.4 km/h 16.1 km/h 90% 0 mm
04:09 1.8 °C 0.3 °C 1021.9 hPa SW 6.4 km/h 14.5 km/h 90% 0 mm
04:14 1.8 °C 0.3 °C 1021.9 hPa SW 6.4 km/h 12.9 km/h 90% 0 mm
04:19 1.8 °C 0.3 °C 1021.9 hPa WSW 12.9 km/h 14.5 km/h 90% 0 mm
04:25 1.8 °C 0.4 °C 1021.9 hPa SW 6.4 km/h 19.3 km/h 90% 0 mm
04:30 1.8 °C 0.4 °C 1021.9 hPa SW 6.4 km/h 16.1 km/h 90% 0 mm
04:35 1.9 °C 0.4 °C 1021.9 hPa SW 4.8 km/h 12.9 km/h 90% 0 mm
04:39 1.9 °C 0.3 °C 1021.9 hPa SW 8 km/h 16.1 km/h 89% 0 mm
04:44 1.9 °C 0.3 °C 1021.9 hPa SW 6.4 km/h 16.1 km/h 89% 0 mm
04:50 1.9 °C 0.3 °C 1021.9 hPa SW 6.4 km/h 14.5 km/h 89% 0 mm
04:55 1.9 °C 0.3 °C 1022.2 hPa SW 6.4 km/h 14.5 km/h 89% 0 mm
05:00 1.9 °C 0.3 °C 1022.2 hPa SW 8 km/h 14.5 km/h 89% 0 mm
05:04 1.8 °C 0.2 °C 1022.2 hPa WSW 8 km/h 12.9 km/h 89% 0 mm
05:09 1.8 °C 0.2 °C 1022.2 hPa SW 6.4 km/h 9.7 km/h 89% 0 mm
05:14 1.8 °C 0.2 °C 1022.2 hPa SW 6.4 km/h 11.3 km/h 89% 0 mm
05:19 1.7 °C 0.1 °C 1021.9 hPa SSW 4.8 km/h 9.7 km/h 89% 0 mm
05:24 1.7 °C 0.1 °C 1021.9 hPa SSW 3.2 km/h 9.7 km/h 89% 0 mm
05:30 1.7 °C 0.1 °C 1021.9 hPa SSW 6.4 km/h 9.7 km/h 89% 0 mm
05:34 1.6 °C 0 °C 1022.2 hPa SW 3.2 km/h 8 km/h 89% 0 mm
05:40 1.6 °C 0 °C 1022.2 hPa SW 3.2 km/h 11.3 km/h 89% 0 mm
05:44 1.7 °C 0.1 °C 1022.2 hPa SW 4.8 km/h 11.3 km/h 89% 0 mm
05:49 1.7 °C 0.1 °C 1022.2 hPa SW 4.8 km/h 11.3 km/h 89% 0 mm
05:54 1.7 °C 0.1 °C 1022.2 hPa SW 6.4 km/h 14.5 km/h 89% 0 mm
06:00 1.8 °C 0.2 °C 1022.2 hPa SW 6.4 km/h 14.5 km/h 89% 0 mm
06:05 1.8 °C 0.2 °C 1022.2 hPa SW 8 km/h 14.5 km/h 89% 0 mm
06:10 1.9 °C 0.3 °C 1021.9 hPa SW 8 km/h 16.1 km/h 89% 0 mm
06:14 2 °C 0.4 °C 1021.9 hPa SSW 8 km/h 12.9 km/h 89% 0 mm
06:19 2 °C 0.4 °C 1021.9 hPa SW 8 km/h 16.1 km/h 89% 0 mm
06:24 2.1 °C 0.4 °C 1021.9 hPa SSW 11.3 km/h 17.7 km/h 89% 0 mm
06:29 2.1 °C 0.4 °C 1021.9 hPa SSW 9.7 km/h 19.3 km/h 89% 0 mm
06:34 2.1 °C 0.6 °C 1022.2 hPa WSW 6.4 km/h 17.7 km/h 90% 0 mm
06:39 2.2 °C 0.6 °C 1021.9 hPa SW 12.9 km/h 17.7 km/h 89% 0 mm
06:44 2.2 °C 0.6 °C 1022.2 hPa SW 6.4 km/h 22.5 km/h 89% 0 mm
06:49 2.2 °C 0.8 °C 1022.2 hPa SW 8 km/h 22.5 km/h 90% 0 mm
06:54 2.3 °C 0.8 °C 1022.6 hPa SW 8 km/h 16.1 km/h 90% 0 mm
06:59 2.4 °C 0.9 °C 1022.6 hPa SW 9.7 km/h 19.3 km/h 90% 0 mm
07:04 2.4 °C 0.8 °C 1022.2 hPa SW 9.7 km/h 19.3 km/h 89% 0 mm
07:10 2.6 °C 0.9 °C 1022.2 hPa SW 9.7 km/h 17.7 km/h 89% 0 mm
07:15 2.7 °C 1.1 °C 1022.2 hPa SW 9.7 km/h 16.1 km/h 89% 0 mm
07:20 2.8 °C 1.2 °C 1022.2 hPa SW 8 km/h 16.1 km/h 89% 0 mm
07:24 2.8 °C 1.2 °C 1022.2 hPa SW 8 km/h 17.7 km/h 89% 0 mm
07:29 2.9 °C 1.3 °C 1022.6 hPa SSW 4.8 km/h 14.5 km/h 89% 0 mm
07:34 3 °C 1.2 °C 1022.6 hPa SW 6.4 km/h 14.5 km/h 88% 0 mm
07:39 3.2 °C 1.4 °C 1022.6 hPa SW 4.8 km/h 11.3 km/h 88% 0 mm
07:44 3.2 °C 1.4 °C 1022.6 hPa SSW 8 km/h 17.7 km/h 88% 0 mm
07:49 3.3 °C 1.6 °C 1022.6 hPa SW 9.7 km/h 17.7 km/h 88% 0 mm
07:54 3.4 °C 1.7 °C 1022.9 hPa SW 9.7 km/h 16.1 km/h 88% 0 mm
07:59 3.6 °C 1.8 °C 1022.9 hPa SW 8 km/h 20.9 km/h 88% 0 mm
08:04 3.6 °C 1.7 °C 1022.9 hPa SW 9.7 km/h 20.9 km/h 87% 0 mm
08:09 3.7 °C 1.7 °C 1022.6 hPa SW 9.7 km/h 19.3 km/h 87% 0 mm
08:14 3.7 °C 1.8 °C 1022.6 hPa SW 8 km/h 16.1 km/h 87% 0 mm
08:19 3.7 °C 1.8 °C 1022.6 hPa SW 8 km/h 16.1 km/h 87% 0 mm
08:25 3.7 °C 1.8 °C 1022.6 hPa SW 4.8 km/h 20.9 km/h 87% 0 mm
08:29 3.7 °C 1.8 °C 1022.6 hPa SW 8 km/h 20.9 km/h 87% 0 mm
08:34 3.8 °C 1.8 °C 1022.6 hPa SW 8 km/h 14.5 km/h 87% 0 mm
08:40 3.9 °C 1.9 °C 1022.6 hPa SW 8 km/h 14.5 km/h 87% 0 mm
08:44 4 °C 2.1 °C 1022.9 hPa SW 8 km/h 19.3 km/h 87% 0 mm
08:49 4.2 °C 2.2 °C 1022.9 hPa WSW 6.4 km/h 20.9 km/h 87% 0 mm
08:54 4.3 °C 2.2 °C 1022.9 hPa SW 8 km/h 17.7 km/h 86% 0 mm
08:59 4.4 °C 2.3 °C 1022.9 hPa SSW 9.7 km/h 22.5 km/h 86% 0 mm
09:04 4.6 °C 2.4 °C 1022.9 hPa WSW 12.9 km/h 22.5 km/h 86% 0 mm
09:09 4.7 °C 2.5 °C 1022.9 hPa SW 14.5 km/h 14.5 km/h 86% 0 mm
09:14 4.8 °C 2.7 °C 1022.9 hPa SW 11.3 km/h 20.9 km/h 86% 0 mm
09:19 4.9 °C 2.6 °C 1022.9 hPa WSW 12.9 km/h 22.5 km/h 85% 0 mm
09:24 4.9 °C 2.6 °C 1022.9 hPa SW 16.1 km/h 22.5 km/h 85% 0 mm
09:29 5.2 °C 3.1 °C 1022.9 hPa West 11.3 km/h 24.1 km/h 86% 0 mm
09:34 5.6 °C 3.2 °C 1022.9 hPa WSW 12.9 km/h 24.1 km/h 85% 0 mm
09:39 5.6 °C 3.1 °C 1022.9 hPa WSW 12.9 km/h 29 km/h 84% 0 mm
09:44 5.6 °C 2.9 °C 1022.9 hPa WSW 14.5 km/h 29 km/h 83% 0 mm
09:50 5.9 °C 3.2 °C 1023.2 hPa WSW 12.9 km/h 24.1 km/h 83% 0 mm
09:54 6.2 °C 3.4 °C 1023.2 hPa WSW 11.3 km/h 25.7 km/h 82% 0 mm
09:59 6.1 °C 3.1 °C 1023.2 hPa WSW 8 km/h 27.4 km/h 81% 0 mm
10:04 6.2 °C 3.4 °C 1023.2 hPa West 12.9 km/h 22.5 km/h 82% 0 mm
10:09 6.1 °C 3.1 °C 1023.2 hPa WSW 9.7 km/h 33.8 km/h 81% 0 mm
10:14 6.2 °C 3.3 °C 1023.2 hPa SW 11.3 km/h 22.5 km/h 82% 0 mm
10:19 6.1 °C 3.1 °C 1023.2 hPa NW 12.9 km/h 24.1 km/h 81% 0 mm
10:24 6.1 °C 3.1 °C 1023.2 hPa WSW 19.3 km/h 29 km/h 81% 0 mm
10:29 6.1 °C 3.1 °C 1023.2 hPa WSW 17.7 km/h 25.7 km/h 81% 0 mm
10:34 6.4 °C 3.4 °C 1023.2 hPa SW 12.9 km/h 24.1 km/h 81% 0 mm
10:39 6.4 °C 3.2 °C 1023.2 hPa SW 12.9 km/h 25.7 km/h 80% 0 mm
10:44 6.2 °C 3 °C 1023.2 hPa SW 14.5 km/h 29 km/h 80% 0 mm
10:49 6.2 °C 3.2 °C 1023.2 hPa WSW 16.1 km/h 30.6 km/h 81% 0 mm
10:54 6.2 °C 3 °C 1023.2 hPa WSW 16.1 km/h 30.6 km/h 80% 0 mm
10:59 6.3 °C 3.1 °C 1023.2 hPa WSW 16.1 km/h 27.4 km/h 80% 0 mm
11:04 6.6 °C 3.6 °C 1023.2 hPa SSW 6.4 km/h 22.5 km/h 81% 0 mm
11:09 6.7 °C 3.3 °C 1023.2 hPa WSW 9.7 km/h 27.4 km/h 79% 0 mm
11:14 6.4 °C 3.2 °C 1023.2 hPa SW 14.5 km/h 27.4 km/h 80% 0 mm
11:19 6.6 °C 3.4 °C 1023.2 hPa WSW 8 km/h 25.7 km/h 80% 0 mm
11:24 6.8 °C 3.4 °C 1022.9 hPa SW 11.3 km/h 24.1 km/h 79% 0 mm
11:29 6.8 °C 3.3 °C 1022.9 hPa WSW 14.5 km/h 24.1 km/h 78% 0 mm
11:34 7.1 °C 3.5 °C 1022.9 hPa WSW 9.7 km/h 20.9 km/h 78% 0 mm
11:39 7.3 °C 3.7 °C 1022.9 hPa WSW 9.7 km/h 20.9 km/h 78% 0 mm
11:44 7.6 °C 4 °C 1022.9 hPa WSW 11.3 km/h 20.9 km/h 78% 0 mm
11:49 7.5 °C 3.7 °C 1022.9 hPa SW 11.3 km/h 20.9 km/h 77% 0 mm
11:54 7.3 °C 3.6 °C 1022.6 hPa SW 11.3 km/h 20.9 km/h 77% 0 mm
11:59 7.7 °C 4.3 °C 1022.6 hPa WSW 12.9 km/h 22.5 km/h 79% 0 mm
12:04 7.6 °C 3.8 °C 1022.6 hPa SW 12.9 km/h 29 km/h 77% 0 mm
12:09 7.3 °C 3.4 °C 1022.6 hPa SW 9.7 km/h 25.7 km/h 76% 0 mm
12:14 7.1 °C 3.3 °C 1022.6 hPa South 16.1 km/h 30.6 km/h 77% 0 mm
12:19 7.4 °C 3.7 °C 1022.6 hPa SW 14.5 km/h 30.6 km/h 77% 0 mm
12:24 7.7 °C 3.9 °C 1022.6 hPa SW 12.9 km/h 22.5 km/h 77% 0 mm
12:29 7.6 °C 3.6 °C 1022.6 hPa SW 14.5 km/h 32.2 km/h 76% 0 mm
12:34 7.7 °C 3.7 °C 1022.6 hPa SSE 8 km/h 27.4 km/h 76% 0 mm
12:39 7.6 °C 3.6 °C 1022.6 hPa West 14.5 km/h 27.4 km/h 76% 0 mm
12:44 7.4 °C 3.8 °C 1022.6 hPa SW 19.3 km/h 25.7 km/h 78% 0 mm
12:49 7.1 °C 3.3 °C 1022.6 hPa SW 14.5 km/h 25.7 km/h 77% 0 mm
12:54 7.4 °C 3.8 °C 1022.6 hPa WSW 14.5 km/h 24.1 km/h 78% 0 mm
12:59 7.3 °C 3.4 °C 1022.6 hPa SW 14.5 km/h 27.4 km/h 76% 0 mm
13:04 7.1 °C 3.3 °C 1022.2 hPa SW 14.5 km/h 27.4 km/h 77% 0 mm
13:09 7.6 °C 3.8 °C 1022.2 hPa SW 12.9 km/h 27.4 km/h 77% 0 mm
13:14 7.8 °C 4.2 °C 1022.2 hPa SW 12.9 km/h 24.1 km/h 78% 0 mm
13:19 7.7 °C 3.9 °C 1022.2 hPa SW 14.5 km/h 24.1 km/h 77% 0 mm
13:24 7.6 °C 4 °C 1022.2 hPa SW 12.9 km/h 25.7 km/h 78% 0 mm
13:29 7.9 °C 3.9 °C 1022.2 hPa WSW 16.1 km/h 22.5 km/h 76% 0 mm
13:34 8.2 °C 4.2 °C 1022.2 hPa SSW 11.3 km/h 19.3 km/h 76% 0 mm
13:39 8 °C 3.8 °C 1022.2 hPa WSW 8 km/h 24.1 km/h 75% 0 mm
13:44 8.1 °C 4.3 °C 1022.2 hPa WSW 17.7 km/h 25.7 km/h 77% 0 mm
13:49 7.8 °C 3.7 °C 1022.2 hPa SW 8 km/h 25.7 km/h 75% 0 mm
13:54 7.9 °C 3.8 °C 1022.2 hPa SW 16.1 km/h 24.1 km/h 75% 0 mm
13:59 8.2 °C 4.2 °C 1021.9 hPa WSW 12.9 km/h 24.1 km/h 76% 0 mm
14:04 8.7 °C 4.5 °C 1022.2 hPa WSW 11.3 km/h 24.1 km/h 75% 0 mm
14:09 8.5 °C 3.7 °C 1022.2 hPa WSW 11.3 km/h 20.9 km/h 72% 0 mm
14:14 8.8 °C 3.8 °C 1021.9 hPa WSW 12.9 km/h 24.1 km/h 71% 0 mm
14:19 8.8 °C 4 °C 1021.9 hPa WSW 12.9 km/h 24.1 km/h 72% 0 mm
14:24 8.2 °C 3.4 °C 1021.9 hPa WSW 11.3 km/h 24.1 km/h 72% 0 mm
14:29 7.9 °C 3.3 °C 1022.2 hPa SW 12.9 km/h 24.1 km/h 73% 0 mm
14:34 7.6 °C 3.4 °C 1021.9 hPa SW 9.7 km/h 19.3 km/h 75% 0 mm
14:39 7.3 °C 3.1 °C 1022.2 hPa WSW 14.5 km/h 19.3 km/h 75% 0 mm
14:44 7 °C 3.2 °C 1021.9 hPa WSW 14.5 km/h 20.9 km/h 77% 0 mm
14:49 7.1 °C 3.1 °C 1021.9 hPa SW 12.9 km/h 20.9 km/h 76% 0 mm
14:54 7.1 °C 3.5 °C 1021.9 hPa SW 6.4 km/h 17.7 km/h 78% 0 mm
14:59 7.2 °C 3.4 °C 1021.9 hPa West 8 km/h 16.1 km/h 77% 0 mm
15:04 7.2 °C 3.3 °C 1021.9 hPa SW 9.7 km/h 16.1 km/h 76% 0 mm
15:09 7.8 °C 3.8 °C 1021.9 hPa WSW 11.3 km/h 17.7 km/h 76% 0 mm
15:14 8.4 °C 3.8 °C 1021.9 hPa WSW 11.3 km/h 19.3 km/h 73% 0 mm
15:19 8.8 °C 4 °C 1021.9 hPa WSW 11.3 km/h 19.3 km/h 72% 0 mm
15:24 8.7 °C 3.3 °C 1021.6 hPa SW 11.3 km/h 20.9 km/h 69% 0 mm
15:29 8.5 °C 3.1 °C 1021.6 hPa SW 12.9 km/h 20.9 km/h 69% 0 mm
15:34 8.3 °C 3.6 °C 1021.6 hPa SW 6.4 km/h 19.3 km/h 72% 0 mm
15:39 8.5 °C 3.3 °C 1021.6 hPa West 6.4 km/h 22.5 km/h 70% 0 mm
15:44 8.5 °C 3.3 °C 1021.6 hPa WSW 12.9 km/h 19.3 km/h 70% 0 mm
15:49 8.7 °C 3.6 °C 1021.6 hPa SW 11.3 km/h 25.7 km/h 70% 0 mm
15:54 8.7 °C 3.5 °C 1021.6 hPa SW 8 km/h 19.3 km/h 70% 0 mm
15:59 8.1 °C 3.1 °C 1021.2 hPa WSW 16.1 km/h 20.9 km/h 71% 0 mm
16:04 7.9 °C 2.9 °C 1021.2 hPa WSW 12.9 km/h 25.7 km/h 71% 0 mm
16:09 7.9 °C 3.2 °C 1021.2 hPa WSW 12.9 km/h 25.7 km/h 72% 0 mm
16:14 8 °C 3.1 °C 1021.2 hPa SW 11.3 km/h 20.9 km/h 71% 0 mm
16:19 7.9 °C 2.9 °C 1021.2 hPa SW 9.7 km/h 20.9 km/h 71% 0 mm
16:24 7.9 °C 3.2 °C 1020.9 hPa SW 8 km/h 14.5 km/h 72% 0 mm
16:29 8 °C 3.1 °C 1020.9 hPa WSW 9.7 km/h 20.9 km/h 71% 0 mm
16:34 7.8 °C 2.9 °C 1020.9 hPa WSW 11.3 km/h 25.7 km/h 71% 0 mm
16:39 7.6 °C 2.9 °C 1020.9 hPa West 8 km/h 19.3 km/h 72% 0 mm
16:44 7.8 °C 2.7 °C 1020.9 hPa SSW 6.4 km/h 20.9 km/h 70% 0 mm
16:49 7.7 °C 2.8 °C 1020.9 hPa South 11.3 km/h 17.7 km/h 71% 0 mm
16:54 7.7 °C 2.7 °C 1020.5 hPa WSW 11.3 km/h 20.9 km/h 71% 0 mm
16:59 7.6 °C 2.7 °C 1020.5 hPa West 11.3 km/h 22.5 km/h 71% 0 mm
17:04 7.8 °C 2.7 °C 1020.9 hPa SW 9.7 km/h 25.7 km/h 70% 0 mm
17:09 8.2 °C 3 °C 1020.9 hPa SW 6.4 km/h 20.9 km/h 70% 0 mm
17:14 8.4 °C 3.1 °C 1020.5 hPa WSW 11.3 km/h 20.9 km/h 69% 0 mm
17:19 7.7 °C 2.4 °C 1020.5 hPa WSW 11.3 km/h 20.9 km/h 69% 0 mm
17:24 7.4 °C 2.5 °C 1020.5 hPa WSW 11.3 km/h 20.9 km/h 71% 0 mm
17:29 7.5 °C 2.6 °C 1020.5 hPa WSW 11.3 km/h 20.9 km/h 71% 0 mm
17:34 7.7 °C 2.6 °C 1020.5 hPa WSW 9.7 km/h 19.3 km/h 70% 0 mm
17:39 7.5 °C 2.6 °C 1020.5 hPa WSW 9.7 km/h 19.3 km/h 71% 0 mm
17:44 7.6 °C 2.9 °C 1020.2 hPa SW 9.7 km/h 19.3 km/h 72% 0 mm
17:49 7.7 °C 2.6 °C 1020.2 hPa SW 9.7 km/h 22.5 km/h 70% 0 mm
17:54 7.7 °C 2.6 °C 1020.5 hPa SW 8 km/h 14.5 km/h 70% 0 mm
17:59 7.4 °C 2.1 °C 1020.5 hPa SSW 8 km/h 19.3 km/h 69% 0 mm
18:04 7.4 °C 2.3 °C 1020.5 hPa WSW 8 km/h 14.5 km/h 70% 0 mm
18:09 7.6 °C 2.5 °C 1020.5 hPa SSW 3.2 km/h 14.5 km/h 70% 0 mm
18:14 7.7 °C 2.6 °C 1020.5 hPa SSW 6.4 km/h 12.9 km/h 70% 0 mm
18:19 7.6 °C 2.3 °C 1020.2 hPa WSW 6.4 km/h 17.7 km/h 69% 0 mm
18:24 7.4 °C 2.1 °C 1020.2 hPa SW 9.7 km/h 17.7 km/h 69% 0 mm
18:29 7.3 °C 2.2 °C 1020.2 hPa SW 9.7 km/h 19.3 km/h 70% 0 mm
18:34 7.1 °C 2.2 °C 1020.2 hPa SW 8 km/h 19.3 km/h 71% 0 mm
18:39 6.9 °C 2.1 °C 1020.2 hPa SW 8 km/h 17.7 km/h 71% 0 mm
18:44 6.9 °C 2 °C 1020.2 hPa SW 9.7 km/h 17.7 km/h 71% 0 mm
18:49 6.8 °C 1.9 °C 1020.2 hPa SW 12.9 km/h 20.9 km/h 71% 0 mm
18:54 6.7 °C 1.8 °C 1020.2 hPa SW 12.9 km/h 20.9 km/h 71% 0 mm
18:59 6.6 °C 1.7 °C 1020.2 hPa WSW 9.7 km/h 20.9 km/h 71% 0 mm
19:04 6.4 °C 1.8 °C 1020.2 hPa WSW 9.7 km/h 20.9 km/h 72% 0 mm
19:09 6.3 °C 1.7 °C 1020.2 hPa WSW 14.5 km/h 19.3 km/h 72% 0 mm
19:14 6.2 °C 1.7 °C 1020.2 hPa SW 12.9 km/h 19.3 km/h 73% 0 mm
19:19 6 °C 1.7 °C 1020.2 hPa SSE 9.7 km/h 14.5 km/h 74% 0 mm
19:24 5.9 °C 1.6 °C 1019.9 hPa WSW 6.4 km/h 20.9 km/h 74% 0 mm
19:29 5.8 °C 1.7 °C 1019.9 hPa SW 12.9 km/h 14.5 km/h 75% 0 mm
19:34 5.7 °C 1.8 °C 1019.9 hPa SW 8 km/h 16.1 km/h 76% 0 mm
19:39 5.6 °C 1.7 °C 1019.9 hPa SW 8 km/h 17.7 km/h 76% 0 mm
19:44 5.5 °C 1.6 °C 1019.9 hPa South 8 km/h 12.9 km/h 76% 0 mm
19:49 5.5 °C 1.6 °C 1019.5 hPa SSW 6.4 km/h 16.1 km/h 76% 0 mm
19:54 5.4 °C 1.6 °C 1019.5 hPa SW 14.5 km/h 17.7 km/h 76% 0 mm
20:04 5.4 °C 1.5 °C 1019.5 hPa SW 11.3 km/h 12.9 km/h 76% 0 mm
20:09 5.4 °C 1.5 °C 1019.5 hPa SW 6.4 km/h 12.9 km/h 76% 0 mm
20:14 5.3 °C 1.6 °C 1019.5 hPa SW 4.8 km/h 11.3 km/h 77% 0 mm
20:19 5.2 °C 1.4 °C 1019.5 hPa SW 4.8 km/h 11.3 km/h 77% 0 mm
20:24 5.1 °C 1.6 °C 1019.5 hPa South 6.4 km/h 14.5 km/h 78% 0 mm
20:29 5.1 °C 1.6 °C 1019.9 hPa WSW 14.5 km/h 14.5 km/h 78% 0 mm
20:34 5.1 °C 1.6 °C 1019.9 hPa SW 3.2 km/h 14.5 km/h 78% 0 mm
20:39 5.1 °C 1.6 °C 1019.9 hPa SW 6.4 km/h 14.5 km/h 78% 0 mm
20:44 5.1 °C 1.6 °C 1019.5 hPa SW 6.4 km/h 12.9 km/h 78% 0 mm
20:49 5.2 °C 1.7 °C 1019.5 hPa WSW 3.2 km/h 11.3 km/h 78% 0 mm
20:54 5.2 °C 1.7 °C 1019.5 hPa SSW 3.2 km/h 11.3 km/h 78% 0 mm
20:59 5.3 °C 1.6 °C 1019.9 hPa SW 3.2 km/h 12.9 km/h 77% 0 mm
21:04 5.3 °C 1.6 °C 1019.5 hPa SW 6.4 km/h 12.9 km/h 77% 0 mm
21:09 5.4 °C 1.6 °C 1019.9 hPa WSW 3.2 km/h 11.3 km/h 76% 0 mm
21:14 5.4 °C 1.6 °C 1019.9 hPa SW 6.4 km/h 11.3 km/h 76% 0 mm
21:19 5.4 °C 1.6 °C 1019.9 hPa SW 4.8 km/h 9.7 km/h 76% 0 mm
21:24 5.4 °C 1.4 °C 1019.9 hPa SW 4.8 km/h 12.9 km/h 75% 0 mm
21:29 5.4 °C 1.4 °C 1019.9 hPa SW 6.4 km/h 12.9 km/h 75% 0 mm
21:34 5.4 °C 1.4 °C 1019.9 hPa SW 6.4 km/h 9.7 km/h 75% 0 mm
21:39 5.4 °C 1.4 °C 1019.9 hPa SW 6.4 km/h 12.9 km/h 75% 0 mm
21:44 5.5 °C 1.2 °C 1019.9 hPa WSW 6.4 km/h 12.9 km/h 74% 0 mm
21:49 5.4 °C 1.2 °C 1019.9 hPa SW 4.8 km/h 8 km/h 74% 0 mm
21:54 5.4 °C 1.1 °C 1019.9 hPa SW 4.8 km/h 11.3 km/h 74% 0 mm
21:59 5.3 °C 1.1 °C 1019.9 hPa West 4.8 km/h 8 km/h 74% 0 mm
22:04 5.3 °C 1.1 °C 1019.9 hPa South 4.8 km/h 11.3 km/h 74% 0 mm
22:09 5.2 °C 1.2 °C 1019.5 hPa SW 6.4 km/h 9.7 km/h 75% 0 mm
22:14 5.2 °C 1.2 °C 1019.5 hPa SW 3.2 km/h 9.7 km/h 75% 0 mm
22:19 5.1 °C 0.8 °C 1019.5 hPa SW 3.2 km/h 9.7 km/h 74% 0 mm
22:24 5 °C 0.9 °C 1019.5 hPa SW 3.2 km/h 8 km/h 75% 0 mm
22:29 5 °C 0.9 °C 1019.9 hPa SSW 3.2 km/h 11.3 km/h 75% 0 mm
22:34 5.1 °C 1 °C 1019.9 hPa SW 3.2 km/h 8 km/h 75% 0 mm
22:39 5.1 °C 1.1 °C 1019.9 hPa WSW 6.4 km/h 8 km/h 75% 0 mm
22:44 5.2 °C 0.9 °C 1019.9 hPa SW 3.2 km/h 8 km/h 74% 0 mm
22:49 5.1 °C 0.8 °C 1019.5 hPa SW 1.6 km/h 8 km/h 74% 0 mm
22:54 5.1 °C 1 °C 1019.5 hPa SW 3.2 km/h 8 km/h 75% 0 mm
22:59 4.9 °C 0.9 °C 1019.9 hPa SW 3.2 km/h 8 km/h 75% 0 mm
23:04 5 °C 0.7 °C 1020.2 hPa SW 4.8 km/h 9.7 km/h 74% 0 mm
23:09 5.1 °C 0.8 °C 1019.9 hPa SW 4.8 km/h 9.7 km/h 74% 0 mm
23:14 5.2 °C 0.9 °C 1019.9 hPa SW 4.8 km/h 9.7 km/h 74% 0 mm
23:19 5.1 °C 0.8 °C 1019.5 hPa SW 4.8 km/h 8 km/h 74% 0 mm
23:24 5.1 °C 0.8 °C 1019.9 hPa SW 4.8 km/h 9.7 km/h 74% 0 mm
23:29 5 °C 0.7 °C 1019.5 hPa SW 1.6 km/h 6.4 km/h 74% 0 mm
23:34 4.9 °C 0.7 °C 1019.5 hPa SW 1.6 km/h 6.4 km/h 74% 0 mm
23:39 5.1 °C 0.8 °C 1019.5 hPa SSW 3.2 km/h 8 km/h 74% 0 mm
23:44 4.8 °C 0.6 °C 1019.2 hPa Calm   3.2 km/h 74% 0 mm
23:49 4.6 °C 0.6 °C 1019.2 hPa Calm     75% 0 mm
23:54 4.4 °C 0.4 °C 1019.2 hPa Calm     75% 0 mm
23:59 4.2 °C 0.3 °C 1019.2 hPa Calm     76% 0 mm
Buffalo, New York, USA
Compliments of Weather Underground - 2.5 mb